createdAt,value
2017-06-15T00:01:54.757Z,90.53
2017-06-15T00:02:54.787Z,90.73
2017-06-15T00:03:54.806Z,91.02
2017-06-15T00:04:54.829Z,90.73
2017-06-15T00:05:54.853Z,90.92
2017-06-15T00:07:54.902Z,91.39
2017-06-15T00:10:09.568Z,91.49
2017-06-15T00:10:54.974Z,91.2
2017-06-15T00:11:54.998Z,91.83
2017-06-15T00:12:55.021Z,91.83
2017-06-15T00:13:55.045Z,92.35
2017-06-15T00:14:55.068Z,92.4
2017-06-15T00:15:55.093Z,92.4
2017-06-15T00:16:55.117Z,91.93
2017-06-15T00:17:55.142Z,92.21
2017-06-15T00:18:55.165Z,92.5
2017-06-15T00:19:55.189Z,93.16
2017-06-15T00:21:55.236Z,92.59
2017-06-15T00:22:55.263Z,92.5
2017-06-15T00:23:55.285Z,93.07
2017-06-15T00:25:09.928Z,93.26
2017-06-15T00:25:55.334Z,93.07
2017-06-15T00:26:55.358Z,93.93
2017-06-15T00:27:55.382Z,94.12
2017-06-15T00:28:55.405Z,94.7
2017-06-15T00:29:55.430Z,94.31
2017-06-15T00:30:55.452Z,94.6
2017-06-15T00:31:55.477Z,94.79
2017-06-15T00:32:55.501Z,94.79
2017-06-15T00:33:55.524Z,94.51
2017-06-15T00:34:55.548Z,94.22
2017-06-15T00:35:55.574Z,93.74
2017-06-15T00:36:55.599Z,93.74
2017-06-15T00:37:55.623Z,93.84
2017-06-15T00:38:55.645Z,93.93
2017-06-15T00:39:55.670Z,94.7
2017-06-15T00:40:55.692Z,95.07
2017-06-15T00:41:55.718Z,94.12
2017-06-15T00:42:55.739Z,94.51
2017-06-15T00:43:55.764Z,94.46
2017-06-15T00:44:55.787Z,94.74
2017-06-15T00:45:55.826Z,95.03
2017-06-15T00:46:55.839Z,95.03
2017-06-15T00:47:55.862Z,94.65
2017-06-15T00:48:55.885Z,94.93
2017-06-15T00:49:55.955Z,95.61
2017-06-15T00:50:55.931Z,95.32
2017-06-15T00:51:55.956Z,95.89
2017-06-15T00:53:56.005Z,96.17
2017-06-15T00:54:56.025Z,96.27
2017-06-15T00:55:56.048Z,96.37
2017-06-15T00:57:10.690Z,95.79
2017-06-15T00:57:55.792Z,95.22
2017-06-15T00:58:56.120Z,95.22
2017-06-15T00:59:56.142Z,95.7
2017-06-15T01:00:56.168Z,95.17
2017-06-15T01:01:56.194Z,95.22
2017-06-15T01:02:56.217Z,95.7
2017-06-15T01:03:56.238Z,95.22
2017-06-15T01:04:56.262Z,95.32
2017-06-15T01:05:56.285Z,96.27
2017-06-15T01:06:56.310Z,96.75
2017-06-15T01:07:56.333Z,96.56
2017-06-15T01:08:56.359Z,96.27
2017-06-15T01:10:56.405Z,96.46
2017-06-15T01:11:56.427Z,96.46
2017-06-15T01:13:11.069Z,96.94
2017-06-15T01:13:56.475Z,96.56
2017-06-15T01:14:56.498Z,96.56
2017-06-15T01:15:56.526Z,96.46
2017-06-15T01:16:56.546Z,96.37
2017-06-15T01:17:56.619Z,96.37
2017-06-15T01:18:56.593Z,96.17
2017-06-15T01:19:56.617Z,96.37
2017-06-15T01:20:56.643Z,96.75
2017-06-15T01:21:56.664Z,95.79
2017-06-15T01:22:56.688Z,95.7
2017-06-15T01:25:57.059Z,96.17
2017-06-15T01:26:56.782Z,96.08
2017-06-15T01:27:56.807Z,95.98
2017-06-15T01:29:11.446Z,96.46
2017-06-15T01:29:56.855Z,96.27
2017-06-15T01:30:56.878Z,96.27
2017-06-15T01:31:56.900Z,96.46
2017-06-15T01:32:56.924Z,95.89
2017-06-15T01:33:56.948Z,95.79
2017-06-15T01:34:56.972Z,95.98
2017-06-15T01:35:56.996Z,95.89
2017-06-15T01:36:57.017Z,96.17
2017-06-15T01:37:57.042Z,96.84
2017-06-15T01:38:57.065Z,97.03
2017-06-15T01:39:57.089Z,97.71
2017-06-15T01:40:57.113Z,97.03
2017-06-15T01:42:57.170Z,97.23
2017-06-15T01:43:57.183Z,97.42
2017-06-15T01:45:11.825Z,97.61
2017-06-15T01:45:57.232Z,97.42
2017-06-15T01:46:57.254Z,97.23
2017-06-15T01:47:57.280Z,97.89
2017-06-15T01:48:57.300Z,97.89
2017-06-15T01:49:57.374Z,97.32
2017-06-15T01:50:57.347Z,97.89
2017-06-15T01:51:57.370Z,97.8
2017-06-15T01:52:57.394Z,98.37
2017-06-15T01:53:57.115Z,98.18
2017-06-15T01:54:57.441Z,97.99
2017-06-15T01:55:57.465Z,98.08
2017-06-15T01:56:57.520Z,98.03
2017-06-15T01:58:57.537Z,98.37
2017-06-15T02:00:12.178Z,97.8
2017-06-15T02:00:57.583Z,97.42
2017-06-15T02:01:57.606Z,97.89
2017-06-15T02:02:57.633Z,97.8
2017-06-15T02:03:57.656Z,98.08
2017-06-15T02:04:57.677Z,98.03
2017-06-15T02:05:57.701Z,98.52
2017-06-15T02:06:57.725Z,98.8
2017-06-15T02:07:57.750Z,99.18
2017-06-15T02:08:57.772Z,99.18
2017-06-15T02:09:57.793Z,99.08
2017-06-15T02:10:57.818Z,99.57
2017-06-15T02:11:57.842Z,99.66
2017-06-15T02:12:57.865Z,99.57
2017-06-15T02:13:57.584Z,99.47
2017-06-15T02:14:57.914Z,99.66
2017-06-15T02:15:57.938Z,99.57
2017-06-15T02:16:57.959Z,98.9
2017-06-15T02:17:57.982Z,98.61
2017-06-15T02:18:58.005Z,98.37
2017-06-15T02:19:58.028Z,97.89
2017-06-15T02:20:58.053Z,97.99
2017-06-15T02:21:58.076Z,97.8
2017-06-15T02:22:58.099Z,97.99
2017-06-15T02:23:57.818Z,98.42
2017-06-15T02:24:58.147Z,98.99
2017-06-15T02:25:58.169Z,99.47
2017-06-15T02:27:58.216Z,99.47
2017-06-15T02:29:58.263Z,99.85
2017-06-15T02:30:58.287Z,99.99
2017-06-15T02:32:12.927Z,99.95
2017-06-15T02:32:58.334Z,99.99
2017-06-15T02:33:58.356Z,99.99
2017-06-15T02:34:58.381Z,99.99
2017-06-15T02:35:58.402Z,99.99
2017-06-15T02:36:58.425Z,99.99
2017-06-15T02:37:58.449Z,99.99
2017-06-15T02:38:58.473Z,99.99
2017-06-15T02:39:58.499Z,99.57
2017-06-15T02:40:58.217Z,99.37
2017-06-15T02:41:58.542Z,99.47
2017-06-15T02:42:58.565Z,99.99
2017-06-15T02:46:58.658Z,99.66
2017-06-15T02:48:13.300Z,99.99
2017-06-15T02:48:58.739Z,99.99
2017-06-15T02:49:58.730Z,99.99
2017-06-15T02:50:58.752Z,99.99
2017-06-15T02:51:58.774Z,99.99
2017-06-15T02:52:58.798Z,99.99
2017-06-15T02:53:58.823Z,99.99
2017-06-15T02:54:58.895Z,99.99
2017-06-15T02:55:58.614Z,99.99
2017-06-15T02:56:58.890Z,99.99
2017-06-15T02:57:58.913Z,99.99
2017-06-15T02:58:58.938Z,99.99
2017-06-15T02:59:58.960Z,99.99
2017-06-15T03:01:59.006Z,99.99
2017-06-15T03:02:59.031Z,99.99
2017-06-15T03:04:13.671Z,99.99
2017-06-15T03:04:59.077Z,99.99
2017-06-15T03:05:59.101Z,99.99
2017-06-15T03:06:59.125Z,99.99
2017-06-15T03:07:59.146Z,99.99
2017-06-15T03:08:59.171Z,99.99
2017-06-15T03:09:58.890Z,99.99
2017-06-15T03:10:59.217Z,99.99
2017-06-15T03:11:59.241Z,99.99
2017-06-15T03:12:59.264Z,99.99
2017-06-15T03:13:59.286Z,99.99
2017-06-15T03:14:59.309Z,99.99
2017-06-15T03:15:59.333Z,99.99
2017-06-15T03:17:59.380Z,99.99
2017-06-15T03:20:14.043Z,99.99
2017-06-15T03:20:59.451Z,99.99
2017-06-15T03:21:59.473Z,99.99
2017-06-15T03:22:59.497Z,99.99
2017-06-15T03:23:59.525Z,99.99
2017-06-15T03:24:59.543Z,99.99
2017-06-15T03:25:59.568Z,99.99
2017-06-15T03:26:59.589Z,99.99
2017-06-15T03:27:59.615Z,99.99
2017-06-15T03:28:59.637Z,99.99
2017-06-15T03:29:59.674Z,99.99
2017-06-15T03:30:59.682Z,99.99
2017-06-15T03:32:59.731Z,99.99
2017-06-15T03:33:59.753Z,99.99
2017-06-15T03:35:14.394Z,99.99
2017-06-15T03:35:59.802Z,99.99
2017-06-15T03:36:59.824Z,99.99
2017-06-15T03:37:59.850Z,99.99
2017-06-15T03:38:59.876Z,99.99
2017-06-15T03:39:59.896Z,99.99
2017-06-15T03:40:59.918Z,99.99
2017-06-15T03:41:59.944Z,99.99
2017-06-15T03:42:59.964Z,99.99
2017-06-15T03:43:59.988Z,99.99
2017-06-15T03:45:00.012Z,99.99
2017-06-15T03:46:00.034Z,99.8
2017-06-15T03:47:00.059Z,99.99
2017-06-15T03:48:00.080Z,99.9
2017-06-15T03:49:00.106Z,99.8
2017-06-15T03:50:00.147Z,99.9
2017-06-15T03:51:00.150Z,99.71
2017-06-15T03:52:00.176Z,99.48
2017-06-15T03:53:00.204Z,99.19
2017-06-15T03:54:00.223Z,99.28
2017-06-15T03:55:00.252Z,98.9
2017-06-15T03:56:00.303Z,98.71
2017-06-15T03:57:00.298Z,98.42
2017-06-15T03:58:00.319Z,97.66
2017-06-15T03:59:00.337Z,96.75
2017-06-15T04:00:00.362Z,95.89
2017-06-15T04:01:00.385Z,95.22
2017-06-15T04:02:00.409Z,94.17
2017-06-15T04:03:00.434Z,93.64
2017-06-15T04:04:00.457Z,92.88
2017-06-15T04:05:00.479Z,92.3
2017-06-15T04:06:00.503Z,91.53
2017-06-15T04:07:15.144Z,91.77
2017-06-15T04:08:00.551Z,90.63
2017-06-15T04:09:00.574Z,91.01
2017-06-15T04:10:00.649Z,90.24
2017-06-15T04:11:00.621Z,88.76
2017-06-15T04:12:00.647Z,85.39
2017-06-15T04:13:00.670Z,83.27
2017-06-15T04:14:00.728Z,82.03
2017-06-15T04:15:00.719Z,81.35
2017-06-15T04:16:00.745Z,81.84
2017-06-15T04:18:00.793Z,82.27
2017-06-15T04:19:00.816Z,82.18
2017-06-15T04:20:00.841Z,83.04
2017-06-15T04:22:00.892Z,83.29
2017-06-15T04:23:15.532Z,83.29
2017-06-15T04:24:00.939Z,83.48
2017-06-15T04:25:00.963Z,84.15
2017-06-15T04:26:00.987Z,84.53
2017-06-15T04:27:01.012Z,84.3
2017-06-15T04:28:01.035Z,85.06
2017-06-15T04:29:01.060Z,84.78
2017-06-15T04:30:01.084Z,84.88
2017-06-15T04:31:01.162Z,85.06
2017-06-15T04:33:01.159Z,85.06
2017-06-15T04:34:01.182Z,84.88
2017-06-15T04:35:01.208Z,85.39
2017-06-15T04:36:01.281Z,85.58
2017-06-15T04:37:01.257Z,84.82
2017-06-15T04:38:01.281Z,84.53
2017-06-15T04:39:15.922Z,84.05
2017-06-15T04:40:01.328Z,84.44
2017-06-15T04:41:01.050Z,84.48
2017-06-15T04:42:01.377Z,84.38
2017-06-15T04:43:01.402Z,84
2017-06-15T04:44:01.427Z,83.38
2017-06-15T04:45:01.453Z,83.61
2017-06-15T04:46:01.477Z,83.14
2017-06-15T04:47:01.500Z,83.42
2017-06-15T04:48:01.524Z,83.42
2017-06-15T04:49:01.550Z,84.19
2017-06-15T04:51:01.597Z,82.85
2017-06-15T04:53:01.647Z,82.31
2017-06-15T04:55:16.315Z,80.05
2017-06-15T04:56:01.723Z,79.03
2017-06-15T04:57:01.747Z,77.4
2017-06-15T04:58:01.771Z,74.4
2017-06-15T04:59:01.804Z,71.49
2017-06-15T05:00:01.823Z,67.74
2017-06-15T05:01:01.875Z,63.76
2017-06-15T05:02:01.874Z,59.6
2017-06-15T05:03:01.902Z,56.4
2017-06-15T05:04:02.230Z,54.71
2017-06-15T05:05:01.956Z,52.44
2017-06-15T05:06:02.034Z,51.59
2017-06-15T05:07:02.015Z,50.53
2017-06-15T05:09:02.071Z,47.49
2017-06-15T05:10:16.720Z,46.45
2017-06-15T05:11:02.130Z,45.98
2017-06-15T05:12:02.162Z,45.5
2017-06-15T05:13:02.191Z,44.82
2017-06-15T05:14:02.222Z,43.87
2017-06-15T05:15:02.253Z,44.18
2017-06-15T05:16:02.284Z,43.99
2017-06-15T05:17:02.317Z,43.99
2017-06-15T05:18:02.348Z,41.5
2017-06-15T05:19:02.379Z,41.25
2017-06-15T05:20:02.412Z,40.01
2017-06-15T05:21:02.445Z,37.79
2017-06-15T05:22:02.478Z,36.36
2017-06-15T05:23:02.210Z,36.28
2017-06-15T05:24:02.240Z,35.71
2017-06-15T05:25:02.579Z,35.22
2017-06-15T05:26:02.613Z,34.45
2017-06-15T05:27:02.654Z,32.81
2017-06-15T05:28:02.682Z,33.5
2017-06-15T05:29:02.714Z,33.2
2017-06-15T05:30:02.750Z,32.9
2017-06-15T05:31:02.786Z,31.83
2017-06-15T05:32:02.819Z,32.42
2017-06-15T05:33:02.854Z,30.96
2017-06-15T05:34:02.889Z,31.84
2017-06-15T05:35:02.921Z,31.54
2017-06-15T05:36:02.655Z,30.7
2017-06-15T05:37:02.996Z,30.32
2017-06-15T05:38:03.029Z,30.5
2017-06-15T05:40:03.101Z,30.02
2017-06-15T05:41:03.136Z,29.93
2017-06-15T05:42:17.792Z,29.63
2017-06-15T05:43:03.207Z,30.39
2017-06-15T05:44:03.245Z,30.19
2017-06-15T05:45:03.282Z,30.08
2017-06-15T05:46:03.312Z,30.75
2017-06-15T05:47:03.352Z,29.69
2017-06-15T05:48:03.388Z,29.44
2017-06-15T05:49:03.424Z,28.47
2017-06-15T05:50:03.459Z,28.89
2017-06-15T05:51:03.497Z,28.49
2017-06-15T05:52:03.532Z,29.34
2017-06-15T05:53:03.569Z,29.44
2017-06-15T05:57:03.718Z,27.99
2017-06-15T05:58:18.375Z,26.84
2017-06-15T05:59:03.793Z,27.62
2017-06-15T06:00:03.830Z,27.72
2017-06-15T06:01:03.865Z,28
2017-06-15T06:02:03.904Z,28.22
2017-06-15T06:03:03.938Z,27.43
2017-06-15T06:04:03.975Z,26.46
2017-06-15T06:05:04.036Z,26.07
2017-06-15T06:06:04.050Z,26.65
2017-06-15T06:07:03.784Z,27.22
2017-06-15T06:08:04.127Z,28.37
2017-06-15T06:09:04.162Z,27.12
2017-06-15T06:10:04.202Z,26.17
2017-06-15T06:11:04.237Z,26.37
2017-06-15T06:12:03.972Z,25.57
2017-06-15T06:13:04.315Z,26.47
2017-06-15T06:14:18.971Z,24.9
2017-06-15T06:15:04.391Z,24.64
2017-06-15T06:16:04.429Z,23.94
2017-06-15T06:17:04.464Z,25.4
2017-06-15T06:18:04.500Z,27.44
2017-06-15T06:19:04.539Z,25.49
2017-06-15T06:20:04.583Z,25.29
2017-06-15T06:21:04.615Z,25.87
2017-06-15T06:22:04.653Z,25.87
2017-06-15T06:23:04.696Z,25.48
2017-06-15T06:24:04.731Z,26.95
2017-06-15T06:25:04.765Z,25.87
2017-06-15T06:28:04.882Z,25.87
2017-06-15T06:29:04.916Z,26.26
2017-06-15T06:30:19.578Z,25.39
2017-06-15T06:31:04.995Z,25.21
2017-06-15T06:32:05.030Z,25.21
2017-06-15T06:33:05.068Z,25.49
2017-06-15T06:34:05.107Z,24.77
2017-06-15T06:35:05.144Z,25.08
2017-06-15T06:36:05.193Z,25.18
2017-06-15T06:37:04.917Z,24.7
2017-06-15T06:38:05.259Z,25.39
2017-06-15T06:39:05.296Z,24.69
2017-06-15T06:40:05.333Z,24.3
2017-06-15T06:41:05.376Z,23.43
2017-06-15T06:43:05.450Z,23.91
2017-06-15T06:44:05.790Z,24.52
2017-06-15T06:45:20.147Z,24.32
2017-06-15T06:46:05.564Z,23.25
2017-06-15T06:47:05.602Z,24.05
2017-06-15T06:48:05.641Z,23.17
2017-06-15T06:49:05.730Z,22.3
2017-06-15T06:50:05.717Z,23.38
2017-06-15T06:51:05.757Z,22.39
2017-06-15T06:52:05.795Z,21.98
2017-06-15T06:53:05.845Z,22.28
2017-06-15T06:54:05.873Z,23.86
2017-06-15T06:55:05.910Z,22.49
2017-06-15T06:57:05.989Z,22.19
2017-06-15T06:58:06.028Z,21.51
2017-06-15T07:00:06.107Z,22.3
2017-06-15T07:01:06.145Z,22.69
2017-06-15T07:02:06.187Z,22.2
2017-06-15T07:03:06.220Z,22.77
2017-06-15T07:04:06.260Z,22.66
2017-06-15T07:05:06.297Z,22.77
2017-06-15T07:06:06.337Z,22.97
2017-06-15T07:07:06.381Z,22.88
2017-06-15T07:08:06.415Z,22.19
2017-06-15T07:09:06.452Z,22.96
2017-06-15T07:10:06.522Z,22.53
2017-06-15T07:13:06.608Z,24.3
2017-06-15T07:14:06.696Z,23.71
2017-06-15T07:15:06.689Z,24.29
2017-06-15T07:17:21.384Z,23.82
2017-06-15T07:18:06.801Z,23.54
2017-06-15T07:19:06.841Z,22.97
2017-06-15T07:20:06.880Z,22.66
2017-06-15T07:21:06.918Z,23.53
2017-06-15T07:23:06.996Z,23.43
2017-06-15T07:24:07.038Z,23.41
2017-06-15T07:25:07.073Z,24.69
2017-06-15T07:26:07.113Z,24.37
2017-06-15T07:27:07.150Z,25.07
2017-06-15T07:28:07.186Z,24.29
2017-06-15T07:29:07.226Z,24.11
2017-06-15T07:30:07.317Z,23.52
2017-06-15T07:31:07.303Z,23.42
2017-06-15T07:32:07.039Z,23.24
2017-06-15T07:33:22.001Z,23.33
2017-06-15T07:34:07.419Z,24.01
2017-06-15T07:35:07.458Z,24.88
2017-06-15T07:36:07.190Z,23.83
2017-06-15T07:37:07.533Z,23.43
2017-06-15T07:38:07.571Z,24.12
2017-06-15T07:39:07.607Z,23.83
2017-06-15T07:40:07.645Z,23.43
2017-06-15T07:41:07.686Z,25.05
2017-06-15T07:42:07.727Z,24.57
2017-06-15T07:43:07.762Z,24.18
2017-06-15T07:45:07.841Z,23.43
2017-06-15T07:47:07.912Z,21.48
2017-06-15T07:48:07.952Z,21.29
2017-06-15T07:49:22.610Z,22.19
2017-06-15T07:50:08.026Z,22.28
2017-06-15T07:51:08.066Z,21.89
2017-06-15T07:52:08.104Z,22.09
2017-06-15T07:53:08.142Z,21.89
2017-06-15T07:54:08.180Z,22.55
2017-06-15T07:55:08.225Z,23.42
2017-06-15T07:56:08.308Z,24.08
2017-06-15T07:57:08.293Z,24.16
2017-06-15T07:58:08.030Z,24.15
2017-06-15T07:59:08.371Z,25.52
2017-06-15T08:00:08.105Z,23.67
2017-06-15T08:01:08.143Z,24.38
2017-06-15T08:02:08.786Z,23.79
2017-06-15T08:03:08.220Z,23.99
2017-06-15T08:04:08.255Z,23.9
2017-06-15T08:05:23.218Z,23.4
2017-06-15T08:06:08.634Z,23.89
2017-06-15T08:07:08.408Z,24.1
2017-06-15T08:08:08.709Z,24.01
2017-06-15T08:09:08.747Z,22.84
2017-06-15T08:10:08.786Z,23.94
2017-06-15T08:11:08.519Z,23.26
2017-06-15T08:12:08.863Z,21.41
2017-06-15T08:13:08.898Z,22.75
2017-06-15T08:14:08.633Z,23.51
2017-06-15T08:15:08.974Z,23.69
2017-06-15T08:16:09.011Z,24.19
2017-06-15T08:17:09.049Z,22.92
2017-06-15T08:18:08.785Z,22.25
2017-06-15T08:19:09.125Z,24.04
2017-06-15T08:20:23.784Z,23.73
2017-06-15T08:21:09.202Z,23.06
2017-06-15T08:22:08.937Z,22.86
2017-06-15T08:23:09.277Z,24.29
2017-06-15T08:24:09.315Z,25.35
2017-06-15T08:25:09.352Z,24.46
2017-06-15T08:26:09.391Z,24.16
2017-06-15T08:27:09.428Z,25.04
2017-06-15T08:28:09.465Z,24.16
2017-06-15T08:29:09.502Z,24.76
2017-06-15T08:30:09.539Z,25.15
2017-06-15T08:31:09.577Z,25.24
2017-06-15T08:32:09.615Z,25.32
2017-06-15T08:33:09.651Z,26.1
2017-06-15T08:34:09.689Z,26.1
2017-06-15T08:35:09.725Z,25.52
2017-06-15T08:36:09.763Z,25.23
2017-06-15T08:37:09.801Z,26.31
2017-06-15T08:38:09.836Z,26.04
2017-06-15T08:39:09.875Z,24.38
2017-06-15T08:40:09.910Z,24
2017-06-15T08:41:09.950Z,23.22
2017-06-15T08:42:09.984Z,23.83
2017-06-15T08:43:10.022Z,25.55
2017-06-15T08:44:10.058Z,24.57
2017-06-15T08:45:10.097Z,24.08
2017-06-15T08:46:10.132Z,25.16
2017-06-15T08:47:10.170Z,24.65
2017-06-15T08:48:10.205Z,23.89
2017-06-15T08:50:10.279Z,24.85
2017-06-15T08:51:10.355Z,23.97
2017-06-15T08:52:24.974Z,24.29
2017-06-15T08:53:10.390Z,24.1
2017-06-15T08:54:10.428Z,23.52
2017-06-15T08:55:10.464Z,24.43
2017-06-15T08:56:10.499Z,23.26
2017-06-15T08:57:10.537Z,22.38
2017-06-15T08:58:10.581Z,22.19
2017-06-15T08:59:10.610Z,21.98
2017-06-15T09:00:10.647Z,21.9
2017-06-15T09:01:10.684Z,21.01
2017-06-15T09:02:10.721Z,20.81
2017-06-15T09:03:10.756Z,22.95
2017-06-15T09:05:10.832Z,23.53
2017-06-15T09:06:10.866Z,21.97
2017-06-15T09:07:10.903Z,23.43
2017-06-15T09:08:25.560Z,24.4
2017-06-15T09:09:10.976Z,23.5
2017-06-15T09:10:11.012Z,23.9
2017-06-15T09:11:11.050Z,23.51
2017-06-15T09:12:11.087Z,23.43
2017-06-15T09:13:11.122Z,22.85
2017-06-15T09:14:11.159Z,23.53
2017-06-15T09:15:11.245Z,23.9
2017-06-15T09:16:11.232Z,23.21
2017-06-15T09:17:11.271Z,22.45
2017-06-15T09:18:11.306Z,23.24
2017-06-15T09:19:11.342Z,24.59
2017-06-15T09:20:11.377Z,24.48
2017-06-15T09:21:11.413Z,23.8
2017-06-15T09:22:11.499Z,22.63
2017-06-15T09:23:11.487Z,23.43
2017-06-15T09:24:26.143Z,21.58
2017-06-15T09:25:11.559Z,22.17
2017-06-15T09:26:11.595Z,21.78
2017-06-15T09:27:11.631Z,22.66
2017-06-15T09:28:11.667Z,22.56
2017-06-15T09:29:11.705Z,21.57
2017-06-15T09:30:11.742Z,21.88
2017-06-15T09:31:11.777Z,21.37
2017-06-15T09:32:11.813Z,21.18
2017-06-15T09:33:11.849Z,21.73
2017-06-15T09:35:11.920Z,23.61
2017-06-15T09:36:11.955Z,22.84
2017-06-15T09:37:11.690Z,20.79
2017-06-15T09:39:11.785Z,20.99
2017-06-15T09:40:26.721Z,20.78
2017-06-15T09:41:12.139Z,21.68
2017-06-15T09:42:12.175Z,22.83
2017-06-15T09:43:11.906Z,23.3
2017-06-15T09:44:12.246Z,23.67
2017-06-15T09:45:12.283Z,24.16
2017-06-15T09:46:12.319Z,22.89
2017-06-15T09:47:12.354Z,23.4
2017-06-15T09:48:12.390Z,23.39
2017-06-15T09:49:12.430Z,23.19
2017-06-15T09:50:12.461Z,22.41
2017-06-15T09:51:12.545Z,22.71
2017-06-15T09:52:12.532Z,22.8
2017-06-15T09:53:12.568Z,23.86
2017-06-15T09:54:12.602Z,24.54
2017-06-15T09:55:27.259Z,23.39
2017-06-15T09:56:12.674Z,22.62
2017-06-15T09:57:12.709Z,21.15
2017-06-15T09:58:12.744Z,21.06
2017-06-15T09:59:12.780Z,22.31
2017-06-15T10:00:12.865Z,22.5
2017-06-15T10:01:12.849Z,21.91
2017-06-15T10:02:12.584Z,22.2
2017-06-15T10:03:12.920Z,21.72
2017-06-15T10:04:12.956Z,21.91
2017-06-15T10:05:12.991Z,22.7
2017-06-15T10:06:13.025Z,22.71
2017-06-15T10:08:13.095Z,22.52
2017-06-15T10:09:13.130Z,24.07
2017-06-15T10:10:13.164Z,22.91
2017-06-15T10:11:13.201Z,22.41
2017-06-15T10:12:13.235Z,22.41
2017-06-15T10:13:13.271Z,23.49
2017-06-15T10:14:13.306Z,23.67
2017-06-15T10:15:13.340Z,22.89
2017-06-15T10:16:13.376Z,24.47
2017-06-15T10:17:13.460Z,23.5
2017-06-15T10:19:13.478Z,22.62
2017-06-15T10:20:13.513Z,23.3
2017-06-15T10:21:13.549Z,23.39
2017-06-15T10:23:13.618Z,24.26
2017-06-15T10:24:13.654Z,25.13
2017-06-15T10:25:13.689Z,25.99
2017-06-15T10:26:13.419Z,26.82
2017-06-15T10:27:28.377Z,28.11
2017-06-15T10:28:13.791Z,28.51
2017-06-15T10:29:13.825Z,26.86
2017-06-15T10:30:13.861Z,26.56
2017-06-15T10:31:13.895Z,25.88
2017-06-15T10:32:13.928Z,25.29
2017-06-15T10:33:13.964Z,24.7
2017-06-15T10:34:14.000Z,25.18
2017-06-15T10:35:14.032Z,25.96
2017-06-15T10:36:14.068Z,27.44
2017-06-15T10:37:14.102Z,25.78
2017-06-15T10:38:14.135Z,26.55
2017-06-15T10:39:14.169Z,26.83
2017-06-15T10:40:14.205Z,27.78
2017-06-15T10:41:14.238Z,28.38
2017-06-15T10:42:14.273Z,28.47
2017-06-15T10:43:28.927Z,27.88
2017-06-15T10:44:14.351Z,27.61
2017-06-15T10:45:14.374Z,26.54
2017-06-15T10:46:14.139Z,25.56
2017-06-15T10:47:14.493Z,27.21
2017-06-15T10:48:14.478Z,27.78
2017-06-15T10:49:14.563Z,27.59
2017-06-15T10:50:14.241Z,27.98
2017-06-15T10:51:14.581Z,28.65
2017-06-15T10:52:14.613Z,28.86
2017-06-15T10:53:14.648Z,26.71
2017-06-15T10:54:14.682Z,26.71
2017-06-15T10:55:14.752Z,27.28
2017-06-15T10:58:14.817Z,28.43
2017-06-15T10:59:29.471Z,29.7
2017-06-15T11:00:14.888Z,27.95
2017-06-15T11:01:14.918Z,28.25
2017-06-15T11:02:14.987Z,28.06
2017-06-15T11:03:14.985Z,28.36
2017-06-15T11:04:15.019Z,27.39
2017-06-15T11:05:15.055Z,27.69
2017-06-15T11:06:15.088Z,27.19
2017-06-15T11:07:15.120Z,27.38
2017-06-15T11:08:15.154Z,27.95
2017-06-15T11:09:15.188Z,28.63
2017-06-15T11:10:15.222Z,28.43
2017-06-15T11:11:15.255Z,28.93
2017-06-15T11:13:15.322Z,28.45
2017-06-15T11:14:15.355Z,28.16
2017-06-15T11:15:30.009Z,28.38
2017-06-15T11:16:15.424Z,28.86
2017-06-15T11:17:15.459Z,28.94
2017-06-15T11:18:15.489Z,28.18
2017-06-15T11:19:15.220Z,26.71
2017-06-15T11:20:15.557Z,26.99
2017-06-15T11:21:15.590Z,27.19
2017-06-15T11:22:15.623Z,27.58
2017-06-15T11:23:15.709Z,28.45
2017-06-15T11:24:15.689Z,27.38
2017-06-15T11:25:15.723Z,28.47
2017-06-15T11:26:15.756Z,27.28
2017-06-15T11:27:15.788Z,28.25
2017-06-15T11:28:15.823Z,29.02
2017-06-15T11:29:15.552Z,29.11
2017-06-15T11:30:30.509Z,28.53
2017-06-15T11:31:15.921Z,28.3
2017-06-15T11:32:15.652Z,28.99
2017-06-15T11:33:15.990Z,29.17
2017-06-15T11:34:16.022Z,28.68
2017-06-15T11:35:16.056Z,28.39
2017-06-15T11:36:16.088Z,29.28
2017-06-15T11:37:16.122Z,28.5
2017-06-15T11:38:16.153Z,27.73
2017-06-15T11:39:16.186Z,29.86
2017-06-15T11:40:16.219Z,29
2017-06-15T11:41:16.252Z,28.32
2017-06-15T11:42:16.285Z,27.83
2017-06-15T11:43:16.316Z,28.81
2017-06-15T11:44:16.351Z,29.2
2017-06-15T11:45:16.385Z,28.14
2017-06-15T11:46:16.416Z,29.41
2017-06-15T11:47:16.448Z,29.5
2017-06-15T11:48:16.491Z,29.22
2017-06-15T11:49:16.514Z,27.86
2017-06-15T11:50:16.546Z,29.61
2017-06-15T11:51:16.579Z,27.95
2017-06-15T11:52:16.613Z,28.44
2017-06-15T11:53:16.341Z,27.66
2017-06-15T11:54:16.728Z,28.64
2017-06-15T11:55:16.710Z,28.44
2017-06-15T11:56:16.440Z,28.44
2017-06-15T11:57:16.475Z,28.83
2017-06-15T11:58:16.808Z,28.25
2017-06-15T11:59:16.842Z,29.02
2017-06-15T12:00:16.620Z,28.79
2017-06-15T12:01:16.908Z,29.15
2017-06-15T12:02:31.558Z,29.63
2017-06-15T12:03:16.971Z,29.63
2017-06-15T12:04:17.004Z,29.74
2017-06-15T12:05:17.035Z,29.63
2017-06-15T12:06:17.122Z,30.41
2017-06-15T12:07:17.100Z,30.02
2017-06-15T12:08:17.133Z,31.01
2017-06-15T12:09:17.165Z,29.64
2017-06-15T12:10:17.201Z,29.56
2017-06-15T12:11:16.928Z,29.36
2017-06-15T12:12:17.263Z,28.69
2017-06-15T12:13:17.305Z,28.89
2017-06-15T12:14:17.380Z,30.65
2017-06-15T12:16:17.393Z,27.36
2017-06-15T12:17:17.425Z,29
2017-06-15T12:18:32.078Z,27.93
2017-06-15T12:19:17.491Z,28.32
2017-06-15T12:20:17.521Z,28.42
2017-06-15T12:21:17.555Z,28.42
2017-06-15T12:22:17.587Z,28.42
2017-06-15T12:23:17.618Z,27.15
2017-06-15T12:24:17.650Z,27.23
2017-06-15T12:25:17.685Z,27.72
2017-06-15T12:26:18.016Z,28.19
2017-06-15T12:27:17.749Z,28.29
2017-06-15T12:28:17.780Z,28.3
2017-06-15T12:29:17.812Z,28.4
2017-06-15T12:33:17.943Z,27.54
2017-06-15T12:34:32.593Z,27.34
2017-06-15T12:35:18.006Z,27.15
2017-06-15T12:36:18.038Z,27.54
2017-06-15T12:37:18.073Z,27.33
2017-06-15T12:38:18.101Z,27.33
2017-06-15T12:39:18.136Z,28.59
2017-06-15T12:40:18.167Z,28.42
2017-06-15T12:41:18.200Z,28.3
2017-06-15T12:42:18.230Z,28.4
2017-06-15T12:43:18.263Z,28.68
2017-06-15T12:44:18.295Z,29.27
2017-06-15T12:45:18.327Z,29.74
2017-06-15T12:46:18.359Z,29.83
2017-06-15T12:47:18.394Z,29.17
2017-06-15T12:48:18.425Z,29.07
2017-06-15T12:50:33.107Z,30.13
2017-06-15T12:51:18.527Z,29.66
2017-06-15T12:52:18.553Z,28.69
2017-06-15T12:53:18.280Z,27.72
2017-06-15T12:54:18.618Z,28.4
2017-06-15T12:55:18.647Z,28.19
2017-06-15T12:56:18.678Z,28.2
2017-06-15T12:57:18.711Z,28.4
2017-06-15T12:58:18.744Z,28.3
2017-06-15T12:59:18.781Z,27.81
2017-06-15T13:00:18.807Z,27.81
2017-06-15T13:01:18.839Z,28.11
2017-06-15T13:02:18.873Z,28.97
2017-06-15T13:03:18.902Z,29.08
2017-06-15T13:04:18.935Z,28.4
2017-06-15T13:05:33.587Z,28.01
2017-06-15T13:06:19.000Z,27.62
2017-06-15T13:07:19.033Z,27.33
2017-06-15T13:08:19.062Z,29.57
2017-06-15T13:09:19.094Z,28.61
2017-06-15T13:10:19.128Z,27.34
2017-06-15T13:11:19.160Z,27.52
2017-06-15T13:12:19.491Z,28.4
2017-06-15T13:13:19.223Z,26.66
2017-06-15T13:14:18.950Z,26.66
2017-06-15T13:15:19.286Z,27.15
2017-06-15T13:16:19.318Z,26.56
2017-06-15T13:18:19.384Z,26.74
2017-06-15T13:19:19.414Z,26.45
2017-06-15T13:20:19.446Z,27.8
2017-06-15T13:21:19.478Z,28.18
2017-06-15T13:22:19.509Z,29.14
2017-06-15T13:23:19.578Z,28.57
2017-06-15T13:24:19.578Z,29.17
2017-06-15T13:25:19.606Z,27.81
2017-06-15T13:26:19.641Z,28.3
2017-06-15T13:27:19.670Z,28.03
2017-06-15T13:28:19.702Z,27.73
2017-06-15T13:29:19.733Z,25.99
2017-06-15T13:30:19.769Z,26.48
2017-06-15T13:31:19.797Z,27.44
2017-06-15T13:32:19.830Z,27.61
2017-06-15T13:33:19.860Z,27.7
2017-06-15T13:34:19.892Z,28.39
2017-06-15T13:35:19.926Z,28.78
2017-06-15T13:36:19.653Z,29.66
2017-06-15T13:37:34.608Z,28.59
2017-06-15T13:38:20.021Z,28.4
2017-06-15T13:39:20.053Z,28.59
2017-06-15T13:40:20.084Z,29.28
2017-06-15T13:41:20.116Z,28.52
2017-06-15T13:42:20.149Z,28.69
2017-06-15T13:43:20.482Z,28.3
2017-06-15T13:44:20.212Z,28.3
2017-06-15T13:45:20.245Z,27.62
2017-06-15T13:46:20.281Z,28.29
2017-06-15T13:47:20.307Z,28.97
2017-06-15T13:48:20.341Z,28.49
2017-06-15T13:49:20.371Z,27.61
2017-06-15T13:51:20.437Z,27.23
2017-06-15T13:52:20.466Z,27.72
2017-06-15T13:53:35.117Z,27.91
2017-06-15T13:54:20.532Z,28.32